createdAt,value
2017-03-19T00:01:03.444Z,1004.98
2017-03-19T00:02:14.884Z,1004.93
2017-03-19T00:03:25.962Z,1004.95
2017-03-19T00:04:37.008Z,1004.96
2017-03-19T00:05:48.048Z,1004.94
2017-03-19T00:06:59.070Z,1004.96
2017-03-19T00:08:10.099Z,1004.97
2017-03-19T00:09:21.529Z,1005.01
2017-03-19T00:10:32.563Z,1004.98
2017-03-19T00:11:43.590Z,1004.98
2017-03-19T00:12:54.618Z,1004.92
2017-03-19T00:14:05.911Z,1004.91
2017-03-19T00:15:17.146Z,1004.96
2017-03-19T00:16:28.167Z,1004.98
2017-03-19T00:17:39.396Z,1004.98
2017-03-19T00:18:50.425Z,1004.96
2017-03-19T00:20:01.461Z,1005.01
2017-03-19T00:21:12.493Z,1005.04
2017-03-19T00:22:23.720Z,1005.04
2017-03-19T00:23:34.754Z,1005.05
2017-03-19T00:24:46.044Z,1005.09
2017-03-19T00:25:57.070Z,1005.1
2017-03-19T00:27:08.093Z,1005.08
2017-03-19T00:28:19.324Z,1005.11
2017-03-19T00:29:30.359Z,1005.1
2017-03-19T00:30:41.584Z,1005.07
2017-03-19T00:31:52.817Z,1005.1
2017-03-19T00:33:03.878Z,1005.11
2017-03-19T00:34:14.902Z,1005.1
2017-03-19T00:35:25.942Z,1005.09
2017-03-19T00:36:36.957Z,1005.1
2017-03-19T00:37:48.013Z,1005.08
2017-03-19T00:38:59.065Z,1005.01
2017-03-19T00:40:10.100Z,1005.08
2017-03-19T00:41:21.128Z,1005.09
2017-03-19T00:42:32.157Z,1005.12
2017-03-19T00:43:43.185Z,1005.14
2017-03-19T00:44:54.226Z,1005.14
2017-03-19T00:46:05.288Z,1005.14
2017-03-19T00:47:16.369Z,1005.19
2017-03-19T00:48:27.402Z,1005.19
2017-03-19T00:49:38.448Z,1005.2
2017-03-19T00:50:49.479Z,1005.11
2017-03-19T00:52:00.507Z,1005.1
2017-03-19T00:53:11.563Z,1005.04
2017-03-19T00:54:22.595Z,1004.99
2017-03-19T00:55:33.829Z,1004.92
2017-03-19T00:56:44.915Z,1004.83
2017-03-19T00:57:55.947Z,1004.79
2017-03-19T00:59:06.987Z,1004.74
2017-03-19T01:00:18.024Z,1004.69
2017-03-19T01:01:29.055Z,1004.65
2017-03-19T01:02:40.338Z,1004.69
2017-03-19T01:03:51.378Z,1004.68
2017-03-19T01:05:02.415Z,1004.66
2017-03-19T01:06:13.442Z,1004.76
2017-03-19T01:07:24.720Z,1004.74
2017-03-19T01:08:35.753Z,1004.74
2017-03-19T01:09:46.816Z,1004.71
2017-03-19T01:10:57.853Z,1004.7
2017-03-19T01:12:08.875Z,1004.73
2017-03-19T01:13:20.104Z,1004.76
2017-03-19T01:14:31.134Z,1004.77
2017-03-19T01:15:42.168Z,1004.77
2017-03-19T01:16:53.193Z,1004.74
2017-03-19T01:18:04.277Z,1004.71
2017-03-19T01:19:15.317Z,1004.69
2017-03-19T01:20:26.349Z,1004.66
2017-03-19T01:21:37.391Z,1004.58
2017-03-19T01:22:48.418Z,1004.55
2017-03-19T01:23:59.455Z,1004.57
2017-03-19T01:25:10.511Z,1004.56
2017-03-19T01:26:21.535Z,1004.5
2017-03-19T01:27:32.558Z,1004.47
2017-03-19T01:28:43.792Z,1004.45
2017-03-19T01:29:55.073Z,1004.4
2017-03-19T01:31:06.105Z,1004.43
2017-03-19T01:32:17.135Z,1004.44
2017-03-19T01:33:28.197Z,1004.41
2017-03-19T01:34:39.227Z,1004.41
2017-03-19T01:35:50.449Z,1004.38
2017-03-19T01:37:01.468Z,1004.41
2017-03-19T01:38:12.698Z,1004.41
2017-03-19T01:39:23.974Z,1004.38
2017-03-19T01:40:35.004Z,1004.51
2017-03-19T01:41:46.029Z,1004.49
2017-03-19T01:42:57.050Z,1004.53
2017-03-19T01:44:08.283Z,1004.53
2017-03-19T01:45:19.327Z,1004.51
2017-03-19T01:46:30.354Z,1004.48
2017-03-19T01:47:41.385Z,1004.43
2017-03-19T01:48:52.441Z,1004.42
2017-03-19T01:50:03.519Z,1004.38
2017-03-19T01:51:14.946Z,1004.37
2017-03-19T01:52:25.979Z,1004.45
2017-03-19T01:53:37.010Z,1004.45
2017-03-19T01:54:48.241Z,1004.41
2017-03-19T01:55:59.303Z,1004.46
2017-03-19T01:57:10.333Z,1004.45
2017-03-19T01:58:21.361Z,1004.43
2017-03-19T01:59:32.797Z,1004.41
2017-03-19T02:00:43.870Z,1004.38
2017-03-19T02:01:54.914Z,1004.31
2017-03-19T02:03:05.939Z,1004.32
2017-03-19T02:04:16.975Z,1004.28
2017-03-19T02:05:28.003Z,1004.28
2017-03-19T02:06:39.287Z,1004.24
2017-03-19T02:07:50.318Z,1004.23
2017-03-19T02:09:01.553Z,1004.21
2017-03-19T02:10:12.782Z,1004.19
2017-03-19T02:11:23.804Z,1004.2
2017-03-19T02:12:34.828Z,1004.19
2017-03-19T02:13:45.865Z,1004.1
2017-03-19T02:14:56.903Z,1004.12
2017-03-19T02:16:08.009Z,1004.06
2017-03-19T02:17:19.040Z,1004.09
2017-03-19T02:18:30.124Z,1004.08
2017-03-19T02:19:41.162Z,1004.1
2017-03-19T02:20:52.189Z,1004.06
2017-03-19T02:22:03.415Z,1004.1
2017-03-19T02:23:14.439Z,1004.04
2017-03-19T02:24:25.470Z,1004.07
2017-03-19T02:25:36.898Z,1004.03
2017-03-19T02:26:47.924Z,1003.98
2017-03-19T02:27:58.994Z,1003.95
2017-03-19T02:29:10.021Z,1003.91
2017-03-19T02:30:21.055Z,1003.94
2017-03-19T02:31:32.084Z,1003.94
2017-03-19T02:32:43.113Z,1003.89
2017-03-19T02:33:54.136Z,1003.94
2017-03-19T02:35:05.364Z,1003.96
2017-03-19T02:36:16.380Z,1003.94
2017-03-19T02:37:27.412Z,1003.9
2017-03-19T02:38:38.489Z,1003.89
2017-03-19T02:39:49.724Z,1003.87
2017-03-19T02:41:00.953Z,1003.82
2017-03-19T02:42:12.180Z,1003.82
2017-03-19T02:43:23.404Z,1003.78
2017-03-19T02:44:34.444Z,1003.79
2017-03-19T02:45:45.481Z,1003.77
2017-03-19T02:46:56.713Z,1003.75
2017-03-19T02:48:07.735Z,1003.74
2017-03-19T02:49:19.015Z,1003.74
2017-03-19T02:50:30.078Z,1003.75
2017-03-19T02:51:41.107Z,1003.75
2017-03-19T02:52:52.334Z,1003.72
2017-03-19T02:54:03.363Z,1003.71
2017-03-19T02:55:14.443Z,1003.68
2017-03-19T02:56:25.686Z,1003.6
2017-03-19T02:57:36.919Z,1003.61
2017-03-19T02:58:48.152Z,1003.6
2017-03-19T02:59:59.396Z,1003.61
2017-03-19T03:01:10.424Z,1003.57
2017-03-19T03:02:21.441Z,1003.56
2017-03-19T03:03:32.664Z,1003.55
2017-03-19T03:04:43.695Z,1003.57
2017-03-19T03:05:54.720Z,1003.56
2017-03-19T03:07:06.000Z,1003.58
2017-03-19T03:08:17.029Z,1003.55
2017-03-19T03:09:28.054Z,1003.58
2017-03-19T03:10:39.288Z,1003.61
2017-03-19T03:11:50.312Z,1003.59
2017-03-19T03:13:01.337Z,1003.62
2017-03-19T03:14:12.366Z,1003.58
2017-03-19T03:15:23.594Z,1003.58
2017-03-19T03:16:34.867Z,1003.59
2017-03-19T03:17:45.930Z,1003.59
2017-03-19T03:18:56.962Z,1003.57
2017-03-19T03:20:08.008Z,1003.6
2017-03-19T03:21:19.046Z,1003.57
2017-03-19T03:22:30.275Z,1003.59
2017-03-19T03:23:41.710Z,1003.61
2017-03-19T03:24:52.733Z,1003.62
2017-03-19T03:26:03.960Z,1003.58
2017-03-19T03:27:15.024Z,1003.61
2017-03-19T03:28:26.455Z,1003.64
2017-03-19T03:29:37.487Z,1003.63
2017-03-19T03:30:48.529Z,1003.65
2017-03-19T03:31:59.552Z,1003.56
2017-03-19T03:33:10.583Z,1003.57
2017-03-19T03:34:21.820Z,1003.53
2017-03-19T03:35:32.855Z,1003.52
2017-03-19T03:36:43.873Z,1003.58
2017-03-19T03:37:54.953Z,1003.52
2017-03-19T03:39:06.224Z,1003.5
2017-03-19T03:40:17.454Z,1003.49
2017-03-19T03:41:28.477Z,1003.46
2017-03-19T03:42:39.508Z,1003.46
2017-03-19T03:43:50.575Z,1003.43
2017-03-19T03:45:01.607Z,1003.4
2017-03-19T03:46:12.627Z,1003.4
2017-03-19T03:47:23.649Z,1003.35
2017-03-19T03:48:34.674Z,1003.36
2017-03-19T03:49:45.741Z,1003.35
2017-03-19T03:50:57.171Z,1003.3
2017-03-19T03:52:08.192Z,1003.31
2017-03-19T03:53:19.218Z,1003.31
2017-03-19T03:54:30.252Z,1003.25
2017-03-19T03:55:41.567Z,1003.26
2017-03-19T03:56:52.592Z,1003.25
2017-03-19T03:58:03.606Z,1003.24
2017-03-19T03:59:14.630Z,1003.2
2017-03-19T04:00:25.656Z,1003.17
2017-03-19T04:01:36.688Z,1003.18
2017-03-19T04:02:47.914Z,1003.14
2017-03-19T04:03:58.956Z,1003.09
2017-03-19T04:05:10.434Z,1003.05
2017-03-19T04:06:21.465Z,1003.06
2017-03-19T04:07:32.496Z,1003.05
2017-03-19T04:08:43.740Z,1003.03
2017-03-19T04:09:54.769Z,1003.04
2017-03-19T04:11:05.809Z,1003.01
2017-03-19T04:12:17.039Z,1003
2017-03-19T04:13:28.273Z,1002.98
2017-03-19T04:14:39.324Z,1002.97
2017-03-19T04:15:50.607Z,1002.93
2017-03-19T04:17:01.873Z,1002.97
2017-03-19T04:18:12.902Z,1002.96
2017-03-19T04:19:24.136Z,1002.96
2017-03-19T04:20:35.369Z,1002.96
2017-03-19T04:21:46.403Z,1002.95
2017-03-19T04:22:57.439Z,1002.92
2017-03-19T04:24:08.674Z,1002.92
2017-03-19T04:25:19.714Z,1002.94
2017-03-19T04:26:30.788Z,1002.9
2017-03-19T04:27:41.825Z,1002.89
2017-03-19T04:28:53.054Z,1002.9
2017-03-19T04:30:04.290Z,1002.94
2017-03-19T04:31:15.319Z,1002.93
2017-03-19T04:32:26.350Z,1002.87
2017-03-19T04:33:37.379Z,1002.87
2017-03-19T04:34:48.455Z,1002.87
2017-03-19T04:35:59.491Z,1002.83
2017-03-19T04:37:10.718Z,1002.84
2017-03-19T04:38:21.794Z,1002.81
2017-03-19T04:39:33.039Z,1002.81
2017-03-19T04:40:44.102Z,1002.82
2017-03-19T04:41:55.127Z,1002.83
2017-03-19T04:43:06.348Z,1002.81
2017-03-19T04:44:17.375Z,1002.77
2017-03-19T04:45:28.400Z,1002.77
2017-03-19T04:46:39.421Z,1002.75
2017-03-19T04:47:50.753Z,1002.73
2017-03-19T04:49:01.996Z,1002.73
2017-03-19T04:50:13.221Z,1002.7
2017-03-19T04:51:24.456Z,1002.67
2017-03-19T04:52:35.480Z,1002.59
2017-03-19T04:53:46.517Z,1002.58
2017-03-19T04:54:57.553Z,1002.49
2017-03-19T04:56:08.579Z,1002.53
2017-03-19T04:57:19.616Z,1002.58
2017-03-19T04:58:30.706Z,1002.62
2017-03-19T04:59:41.736Z,1002.62
2017-03-19T05:00:52.767Z,1002.64
2017-03-19T05:02:03.791Z,1002.65
2017-03-19T05:03:15.214Z,1002.64
2017-03-19T05:04:26.247Z,1002.65
2017-03-19T05:05:37.279Z,1002.62
2017-03-19T05:06:48.501Z,1002.58
2017-03-19T05:07:59.532Z,1002.49
2017-03-19T05:09:10.612Z,1002.5
2017-03-19T05:10:21.648Z,1002.55
2017-03-19T05:11:32.663Z,1002.52
2017-03-19T05:12:43.679Z,1002.56
2017-03-19T05:13:54.701Z,1002.51
2017-03-19T05:15:05.728Z,1002.48
2017-03-19T05:16:16.962Z,1002.44
2017-03-19T05:17:28.191Z,1002.54
2017-03-19T05:18:39.230Z,1002.6
2017-03-19T05:19:50.259Z,1002.61
2017-03-19T05:21:01.290Z,1002.61
2017-03-19T05:22:12.314Z,1002.62
2017-03-19T05:23:23.537Z,1002.64
2017-03-19T05:24:34.577Z,1002.57
2017-03-19T05:25:45.604Z,1002.55
2017-03-19T05:26:56.691Z,1002.54
2017-03-19T05:28:07.720Z,1002.56
2017-03-19T05:29:18.749Z,1002.5
2017-03-19T05:30:29.796Z,1002.52
2017-03-19T05:31:40.811Z,1002.44
2017-03-19T05:32:52.037Z,1002.43
2017-03-19T05:34:03.069Z,1002.45
2017-03-19T05:35:14.297Z,1002.41
2017-03-19T05:36:25.383Z,1002.46
2017-03-19T05:37:36.404Z,1002.46
2017-03-19T05:38:47.436Z,1002.45
2017-03-19T05:39:58.475Z,1002.43
2017-03-19T05:41:09.708Z,1002.46
2017-03-19T05:42:20.738Z,1002.38
2017-03-19T05:43:31.978Z,1002.39
2017-03-19T05:44:43.014Z,1002.39
2017-03-19T05:45:54.242Z,1002.38
2017-03-19T05:47:05.517Z,1002.33
2017-03-19T05:48:16.551Z,1002.27
2017-03-19T05:49:27.603Z,1002.29
2017-03-19T05:50:38.629Z,1002.29
2017-03-19T05:51:49.657Z,1002.23
2017-03-19T05:53:00.683Z,1002.26
2017-03-19T05:54:11.724Z,1002.26
2017-03-19T05:55:22.992Z,1002.2
2017-03-19T05:56:34.008Z,1002.16
2017-03-19T05:57:45.094Z,1002.13
2017-03-19T05:58:56.119Z,1002.14
2017-03-19T06:00:07.150Z,1002.13
2017-03-19T06:01:18.183Z,1002.13
2017-03-19T06:02:29.205Z,1002.16
2017-03-19T06:03:40.243Z,1002.14
2017-03-19T06:04:51.488Z,1002.1
2017-03-19T06:06:02.519Z,1002.09
2017-03-19T06:07:13.544Z,1002.11
2017-03-19T06:08:24.574Z,1002.14
2017-03-19T06:09:35.603Z,1002.19
2017-03-19T06:10:46.633Z,1002.15
2017-03-19T06:11:57.654Z,1002.16
2017-03-19T06:13:08.679Z,1002.21
2017-03-19T06:14:19.732Z,1002.21
2017-03-19T06:15:31.025Z,1002.21
2017-03-19T06:16:42.092Z,1002.22
2017-03-19T06:17:53.123Z,1002.24
2017-03-19T06:19:04.180Z,1002.22
2017-03-19T06:20:15.416Z,1002.17
2017-03-19T06:21:26.439Z,1002.15
2017-03-19T06:22:37.467Z,1002.13
2017-03-19T06:23:48.498Z,1002.11
2017-03-19T06:24:59.773Z,1002.14
2017-03-19T06:26:10.811Z,1002.13
2017-03-19T06:27:21.834Z,1002.12
2017-03-19T06:28:32.866Z,1002.12
2017-03-19T06:29:43.905Z,1002.09
2017-03-19T06:30:55.137Z,1002.03
2017-03-19T06:32:06.162Z,1002.09
2017-03-19T06:33:17.183Z,1002
2017-03-19T06:34:28.223Z,1001.95
2017-03-19T06:35:39.312Z,1001.96
2017-03-19T06:36:50.338Z,1001.94
2017-03-19T06:38:01.365Z,1001.97
2017-03-19T06:39:12.586Z,1001.94
2017-03-19T06:40:23.806Z,1001.96
2017-03-19T06:41:34.838Z,1001.92
2017-03-19T06:42:45.872Z,1001.96
2017-03-19T06:43:57.102Z,1001.94
2017-03-19T06:45:08.334Z,1001.92
2017-03-19T06:46:19.356Z,1001.97
2017-03-19T06:47:30.585Z,1001.92
2017-03-19T06:48:41.614Z,1001.93
2017-03-19T06:49:52.633Z,1001.86
2017-03-19T06:51:03.661Z,1001.83
2017-03-19T06:52:14.684Z,1001.79
2017-03-19T06:53:25.709Z,1001.8
2017-03-19T06:54:36.778Z,1001.75
2017-03-19T06:55:48.013Z,1001.78
2017-03-19T06:56:59.035Z,1001.77
2017-03-19T06:58:10.321Z,1001.79
2017-03-19T06:59:21.557Z,1001.71
2017-03-19T07:00:32.580Z,1001.7
2017-03-19T07:01:43.837Z,1001.79
2017-03-19T07:02:54.858Z,1001.78
2017-03-19T07:04:05.893Z,1001.77
2017-03-19T07:05:17.121Z,1001.76
2017-03-19T07:06:28.374Z,1001.78
2017-03-19T07:07:39.453Z,1001.74
2017-03-19T07:08:50.517Z,1001.79
2017-03-19T07:10:01.562Z,1001.8
2017-03-19T07:11:12.592Z,1001.75
2017-03-19T07:12:23.645Z,1001.79
2017-03-19T07:13:34.668Z,1001.76
2017-03-19T07:14:45.694Z,1001.75
2017-03-19T07:15:56.723Z,1001.7
2017-03-19T07:17:07.749Z,1001.72
2017-03-19T07:18:18.854Z,1001.71
2017-03-19T07:19:29.885Z,1001.71
2017-03-19T07:20:41.139Z,1001.74
2017-03-19T07:21:52.170Z,1001.71
2017-03-19T07:23:03.201Z,1001.69
2017-03-19T07:24:14.433Z,1001.66
2017-03-19T07:25:25.474Z,1001.65
2017-03-19T07:26:36.497Z,1001.63
2017-03-19T07:27:47.535Z,1001.65
2017-03-19T07:28:59.273Z,1001.63
2017-03-19T07:30:10.312Z,1001.69
2017-03-19T07:31:21.344Z,1001.7
2017-03-19T07:32:32.374Z,1001.71
2017-03-19T07:33:43.413Z,1001.73
2017-03-19T07:34:54.640Z,1001.71
2017-03-19T07:36:05.674Z,1001.74
2017-03-19T07:37:16.700Z,1001.73
2017-03-19T07:38:27.743Z,1001.69
2017-03-19T07:39:38.818Z,1001.69
2017-03-19T07:40:49.847Z,1001.68
2017-03-19T07:42:00.865Z,1001.68
2017-03-19T07:43:12.140Z,1001.64
2017-03-19T07:44:23.179Z,1001.6
2017-03-19T07:45:34.226Z,1001.6
2017-03-19T07:46:45.494Z,1001.59
2017-03-19T07:47:56.519Z,1001.62
2017-03-19T07:49:07.759Z,1001.62
2017-03-19T07:50:18.794Z,1001.61
2017-03-19T07:51:29.830Z,1001.65
2017-03-19T07:52:40.863Z,1001.62
2017-03-19T07:53:51.898Z,1001.58
2017-03-19T07:55:02.920Z,1001.58
2017-03-19T07:56:14.203Z,1001.58
2017-03-19T07:57:25.433Z,1001.63
2017-03-19T07:58:36.877Z,1001.64
2017-03-19T07:59:48.126Z,1001.63
2017-03-19T08:00:59.165Z,1001.62
2017-03-19T08:02:10.191Z,1001.56
2017-03-19T08:03:21.255Z,1001.62
2017-03-19T08:04:32.287Z,1001.65
2017-03-19T08:05:43.519Z,1001.59
2017-03-19T08:06:54.589Z,1001.62
2017-03-19T08:08:05.633Z,1001.61
2017-03-19T08:09:16.665Z,1001.65
2017-03-19T08:10:27.684Z,1001.61
2017-03-19T08:11:38.706Z,1001.6
2017-03-19T08:12:49.724Z,1001.66
2017-03-19T08:14:00.757Z,1001.68
2017-03-19T08:15:11.794Z,1001.7
2017-03-19T08:16:22.822Z,1001.71
2017-03-19T08:17:33.901Z,1001.64
2017-03-19T08:18:45.129Z,1001.69
2017-03-19T08:19:56.363Z,1001.65
2017-03-19T08:21:07.404Z,1001.61
2017-03-19T08:22:18.433Z,1001.61
2017-03-19T08:23:29.458Z,1001.58
2017-03-19T08:24:40.487Z,1001.62
2017-03-19T08:25:51.933Z,1001.65
2017-03-19T08:27:02.989Z,1001.62
2017-03-19T08:28:14.224Z,1001.68
2017-03-19T08:29:25.325Z,1001.71
2017-03-19T08:30:36.363Z,1001.66
2017-03-19T08:31:47.586Z,1001.66
2017-03-19T08:32:58.621Z,1001.69
2017-03-19T08:34:09.661Z,1001.73
2017-03-19T08:35:20.693Z,1001.61
2017-03-19T08:36:31.924Z,1001.65
2017-03-19T08:37:42.951Z,1001.63
2017-03-19T08:38:54.231Z,1001.6
2017-03-19T08:40:05.262Z,1001.66
2017-03-19T08:41:16.315Z,1001.63
2017-03-19T08:42:27.348Z,1001.68
2017-03-19T08:43:38.400Z,1001.68
2017-03-19T08:44:49.639Z,1001.62
2017-03-19T08:46:00.671Z,1001.66
2017-03-19T08:47:11.700Z,1001.7
2017-03-19T08:48:22.735Z,1001.64
2017-03-19T08:49:33.817Z,1001.67
2017-03-19T08:50:44.886Z,1001.71
2017-03-19T08:51:55.908Z,1001.72
2017-03-19T08:53:07.342Z,1001.74
2017-03-19T08:54:18.369Z,1001.66
2017-03-19T08:55:29.405Z,1001.72
2017-03-19T08:56:40.626Z,1001.65
2017-03-19T08:57:51.851Z,1001.61
2017-03-19T08:59:02.885Z,1001.63
2017-03-19T09:00:13.914Z,1001.62
2017-03-19T09:01:24.944Z,1001.59
2017-03-19T09:02:35.978Z,1001.61
2017-03-19T09:03:47.011Z,1001.61
2017-03-19T09:04:58.051Z,1001.66
2017-03-19T09:06:09.129Z,1001.67
2017-03-19T09:07:20.157Z,1001.65
2017-03-19T09:08:31.177Z,1001.64
2017-03-19T09:09:42.216Z,1001.66
2017-03-19T09:10:53.254Z,1001.71
2017-03-19T09:12:04.488Z,1001.73
2017-03-19T09:13:15.711Z,1001.67
2017-03-19T09:14:26.734Z,1001.64
2017-03-19T09:15:37.762Z,1001.62
2017-03-19T09:16:48.845Z,1001.63
2017-03-19T09:17:59.866Z,1001.59
2017-03-19T09:19:10.900Z,1001.58
2017-03-19T09:20:22.143Z,1001.61
2017-03-19T09:21:33.372Z,1001.66
2017-03-19T09:22:44.393Z,1001.6
2017-03-19T09:23:55.428Z,1001.66
2017-03-19T09:25:06.461Z,1001.62
2017-03-19T09:26:17.549Z,1001.68
2017-03-19T09:27:28.577Z,1001.69
2017-03-19T09:28:39.619Z,1001.71
2017-03-19T09:29:50.651Z,1001.77
2017-03-19T09:31:01.692Z,1001.69
2017-03-19T09:32:12.715Z,1001.64
2017-03-19T09:33:23.746Z,1001.72
2017-03-19T09:34:34.989Z,1001.72
2017-03-19T09:35:46.029Z,1001.73
2017-03-19T09:36:57.106Z,1001.76
2017-03-19T09:38:08.335Z,1001.74
2017-03-19T09:39:19.376Z,1001.72
2017-03-19T09:40:30.414Z,1001.75
2017-03-19T09:41:41.647Z,1001.76
2017-03-19T09:42:52.677Z,1001.78
2017-03-19T09:44:03.722Z,1001.74
2017-03-19T09:45:14.751Z,1001.74
2017-03-19T09:46:25.784Z,1001.8
2017-03-19T09:47:36.869Z,1001.74
2017-03-19T09:48:47.906Z,1001.71
2017-03-19T09:49:58.938Z,1001.77
2017-03-19T09:51:10.364Z,1001.73
2017-03-19T09:52:21.599Z,1001.74
2017-03-19T09:53:32.637Z,1001.7
2017-03-19T09:54:43.675Z,1001.7
2017-03-19T09:55:54.711Z,1001.67
2017-03-19T09:57:05.740Z,1001.61
2017-03-19T09:58:16.766Z,1001.66
2017-03-19T09:59:27.795Z,1001.7
2017-03-19T10:00:38.835Z,1001.71
2017-03-19T10:01:49.857Z,1001.71
2017-03-19T10:03:01.121Z,1001.69
2017-03-19T10:04:12.362Z,1001.65
2017-03-19T10:05:23.449Z,1001.71
2017-03-19T10:06:34.706Z,1001.63
2017-03-19T10:07:45.733Z,1001.63
2017-03-19T10:08:56.767Z,1001.57
2017-03-19T10:10:07.798Z,1001.51
2017-03-19T10:11:18.834Z,1001.47
2017-03-19T10:12:29.858Z,1001.5
2017-03-19T10:13:40.896Z,1001.51
2017-03-19T10:14:52.186Z,1001.48
2017-03-19T10:16:03.434Z,1001.48
2017-03-19T10:17:14.701Z,1001.39
2017-03-19T10:18:25.730Z,1001.45
2017-03-19T10:19:36.775Z,1001.4
2017-03-19T10:20:47.815Z,1001.37
2017-03-19T10:21:58.841Z,1001.41
2017-03-19T10:23:09.865Z,1001.4
2017-03-19T10:24:20.899Z,1001.47
2017-03-19T10:25:31.985Z,1001.48
2017-03-19T10:26:43.210Z,1001.41
2017-03-19T10:27:54.264Z,1001.43
2017-03-19T10:29:05.300Z,1001.47
2017-03-19T10:30:16.341Z,1001.49
2017-03-19T10:31:27.596Z,1001.41
2017-03-19T10:32:38.628Z,1001.44
2017-03-19T10:33:49.670Z,1001.38
2017-03-19T10:35:00.705Z,1001.36
2017-03-19T10:36:11.786Z,1001.37
2017-03-19T10:37:23.027Z,1001.44
2017-03-19T10:38:34.065Z,1001.39
2017-03-19T10:39:45.093Z,1001.39
2017-03-19T10:40:56.118Z,1001.42
2017-03-19T10:42:07.148Z,1001.43
2017-03-19T10:43:18.379Z,1001.39
2017-03-19T10:44:29.618Z,1001.43
2017-03-19T10:45:40.667Z,1001.36
2017-03-19T10:46:51.934Z,1001.4
2017-03-19T10:48:03.023Z,1001.43
2017-03-19T10:49:14.070Z,1001.42
2017-03-19T10:50:25.313Z,1001.39
2017-03-19T10:51:36.358Z,1001.37
2017-03-19T10:52:47.790Z,1001.41
2017-03-19T10:53:58.819Z,1001.47
2017-03-19T10:55:09.853Z,1001.5
2017-03-19T10:56:20.882Z,1001.51
2017-03-19T10:57:32.235Z,1001.53
2017-03-19T10:58:43.271Z,1001.51
2017-03-19T10:59:54.518Z,1001.5
2017-03-19T11:01:05.550Z,1001.52
2017-03-19T11:02:16.579Z,1001.44
2017-03-19T11:03:27.609Z,1001.48
2017-03-19T11:04:39.056Z,1001.46
2017-03-19T11:05:50.295Z,1001.44
2017-03-19T11:07:01.327Z,1001.45
2017-03-19T11:08:12.400Z,1001.52
2017-03-19T11:09:23.440Z,1001.37
2017-03-19T11:10:34.470Z,1001.39
2017-03-19T11:11:45.497Z,1001.41
2017-03-19T11:12:56.759Z,1001.37
2017-03-19T11:14:07.803Z,1001.44
2017-03-19T11:15:19.042Z,1001.45
2017-03-19T11:16:30.066Z,1001.42
2017-03-19T11:17:41.335Z,1001.42
2017-03-19T11:18:52.423Z,1001.47
2017-03-19T11:20:03.458Z,1001.42
2017-03-19T11:21:14.689Z,1001.4
2017-03-19T11:22:25.926Z,1001.41
2017-03-19T11:23:36.963Z,1001.32
2017-03-19T11:24:48.294Z,1001.29
2017-03-19T11:25:59.367Z,1001.28
2017-03-19T11:27:10.803Z,1001.17
2017-03-19T11:28:21.836Z,1001.18
2017-03-19T11:29:32.875Z,1001.06
2017-03-19T11:30:43.906Z,1001.09
2017-03-19T11:31:55.131Z,1001.22
2017-03-19T11:33:06.359Z,1001.29
2017-03-19T11:34:17.404Z,1001.24
2017-03-19T11:35:28.641Z,1001.26
2017-03-19T11:36:39.665Z,1001.25
2017-03-19T11:37:50.701Z,1001.26
2017-03-19T11:39:01.739Z,1001.22
2017-03-19T11:40:13.224Z,1001.33
2017-03-19T11:41:24.255Z,1001.27
2017-03-19T11:42:35.290Z,1001.27
2017-03-19T11:43:46.526Z,1001.31
2017-03-19T11:44:57.767Z,1001.23
2017-03-19T11:46:08.805Z,1001.27
2017-03-19T11:47:19.833Z,1001.25
2017-03-19T11:48:30.866Z,1001.26
2017-03-19T11:49:41.908Z,1001.3
2017-03-19T11:50:52.985Z,1001.29
2017-03-19T11:52:04.025Z,1001.28
2017-03-19T11:53:15.257Z,1001.24
2017-03-19T11:54:26.300Z,1001.37
2017-03-19T11:55:37.338Z,1001.3
2017-03-19T11:56:48.362Z,1001.32
2017-03-19T11:57:59.427Z,1001.27
2017-03-19T11:59:10.458Z,1001.2
2017-03-19T12:00:21.507Z,1001.17
2017-03-19T12:01:33.049Z,1001.19
2017-03-19T12:02:44.078Z,1001.25
2017-03-19T12:03:55.314Z,1001.31
2017-03-19T12:05:06.342Z,1001.27
2017-03-19T12:06:17.571Z,1001.33
2017-03-19T12:07:28.888Z,1001.27
2017-03-19T12:08:39.939Z,1001.32
2017-03-19T12:09:51.187Z,1001.37
2017-03-19T12:11:02.230Z,1001.34
2017-03-19T12:12:13.262Z,1001.41
2017-03-19T12:13:24.292Z,1001.4
2017-03-19T12:14:35.325Z,1001.47
2017-03-19T12:15:46.359Z,1001.47
2017-03-19T12:16:57.395Z,1001.51
2017-03-19T12:18:08.643Z,1001.46
2017-03-19T12:19:19.925Z,1001.51
2017-03-19T12:20:30.963Z,1001.55
2017-03-19T12:21:41.990Z,1001.49
2017-03-19T12:22:53.225Z,1001.46
2017-03-19T12:24:04.265Z,1001.47
2017-03-19T12:25:15.297Z,1001.48
2017-03-19T12:26:26.319Z,1001.49
2017-03-19T12:27:37.559Z,1001.46
2017-03-19T12:28:49.052Z,1001.47
2017-03-19T12:30:00.074Z,1001.37
2017-03-19T12:31:11.109Z,1001.49
2017-03-19T12:32:22.547Z,1001.46
2017-03-19T12:33:33.782Z,1001.47
2017-03-19T12:34:44.815Z,1001.44
2017-03-19T12:35:55.851Z,1001.43
2017-03-19T12:37:06.881Z,1001.34
2017-03-19T12:38:17.939Z,1001.37
2017-03-19T12:39:29.242Z,1001.37
2017-03-19T12:40:40.273Z,1001.44
2017-03-19T12:41:51.296Z,1001.35
2017-03-19T12:43:02.329Z,1001.34
2017-03-19T12:44:13.364Z,1001.39
2017-03-19T12:45:24.422Z,1001.47
2017-03-19T12:46:35.448Z,1001.45
2017-03-19T12:47:46.485Z,1001.47
2017-03-19T12:48:57.520Z,1001.48
2017-03-19T12:50:08.603Z,1001.41
2017-03-19T12:51:19.625Z,1001.46
2017-03-19T12:52:30.649Z,1001.54
2017-03-19T12:53:41.682Z,1001.54
2017-03-19T12:54:52.723Z,1001.47
2017-03-19T12:56:03.960Z,1001.57
2017-03-19T12:57:14.994Z,1001.5
2017-03-19T12:58:26.027Z,1001.53
2017-03-19T12:59:37.064Z,1001.56
2017-03-19T13:00:48.294Z,1001.58
2017-03-19T13:01:59.317Z,1001.56
2017-03-19T13:03:10.354Z,1001.48
2017-03-19T13:04:21.392Z,1001.46
2017-03-19T13:05:32.420Z,1001.44
2017-03-19T13:06:43.459Z,1001.43
2017-03-19T13:07:54.793Z,1001.44
2017-03-19T13:09:05.851Z,1001.42
2017-03-19T13:10:16.879Z,1001.32
2017-03-19T13:11:27.905Z,1001.3
2017-03-19T13:12:38.938Z,1001.2
2017-03-19T13:13:50.218Z,1001.24
2017-03-19T13:15:01.659Z,1001.25
2017-03-19T13:16:12.688Z,1001.25
2017-03-19T13:17:24.165Z,1001.29
2017-03-19T13:18:35.395Z,1001.29
2017-03-19T13:19:46.426Z,1001.25
2017-03-19T13:20:57.453Z,1001.24
2017-03-19T13:22:08.488Z,1001.24
2017-03-19T13:23:19.521Z,1001.13
2017-03-19T13:24:30.762Z,1001.13
2017-03-19T13:25:41.991Z,1001.18
2017-03-19T13:26:53.013Z,1001.18
2017-03-19T13:28:04.339Z,1001.15
2017-03-19T13:29:15.770Z,1001.13
2017-03-19T13:30:26.808Z,1000.99
2017-03-19T13:31:37.833Z,1001.02
2017-03-19T13:32:48.865Z,1001.04
2017-03-19T13:33:59.913Z,1000.91
2017-03-19T13:35:10.956Z,1000.86
2017-03-19T13:36:21.991Z,1000.95
2017-03-19T13:37:33.225Z,1001.03
2017-03-19T13:38:44.520Z,1001.01
2017-03-19T13:39:55.567Z,1001.1
2017-03-19T13:41:06.614Z,1001
2017-03-19T13:42:17.644Z,1001.06
2017-03-19T13:43:28.873Z,1001.05
2017-03-19T13:44:40.124Z,1001.03
2017-03-19T13:45:51.160Z,1001
2017-03-19T13:47:02.393Z,1000.98
2017-03-19T13:48:13.427Z,1001.08
2017-03-19T13:49:24.455Z,1001.18
2017-03-19T13:50:35.580Z,1001.11
2017-03-19T13:51:46.610Z,1001.16
2017-03-19T13:52:57.834Z,1001.12
2017-03-19T13:54:08.872Z,1001.1
2017-03-19T13:55:20.157Z,1001.12
2017-03-19T13:56:31.383Z,1001.16
2017-03-19T13:57:42.415Z,1001.09
2017-03-19T13:58:53.465Z,1001.09
2017-03-19T14:00:04.510Z,1001.06
2017-03-19T14:01:15.538Z,1001.07
2017-03-19T14:02:26.777Z,1001.09
2017-03-19T14:03:37.812Z,1001.02
2017-03-19T14:04:48.851Z,1001.06
2017-03-19T14:06:00.140Z,1000.98
2017-03-19T14:07:11.171Z,1001.02
2017-03-19T14:08:22.192Z,1001.02
2017-03-19T14:09:33.230Z,1001.05
2017-03-19T14:10:44.263Z,1001.01
2017-03-19T14:11:55.291Z,1001.01
2017-03-19T14:13:06.326Z,1000.93
2017-03-19T14:14:17.361Z,1000.88
2017-03-19T14:15:28.392Z,1000.98
2017-03-19T14:16:39.468Z,1000.91
2017-03-19T14:17:50.708Z,1000.83
2017-03-19T14:19:01.742Z,1000.85
2017-03-19T14:20:12.765Z,1000.97
2017-03-19T14:21:23.793Z,1001.03
2017-03-19T14:22:34.822Z,1000.85
2017-03-19T14:23:45.894Z,1000.83